Time;durP1;ratioP1;P1;durP2;ratioP2;P2;SDS_P1;SDS_P2;PMS_P1;PMS_P2;Temp;Humidity;BMP_temperature;BMP_pressure;BME280_temperature;BME280_humidity;BME280_pressure;Samples;Min_cycle;Max_cycle;Signal;HPM_P1;HPM_P2
2022/01/05 00:01:53;;;;;;;8.90;2.03;;;;;;;2.65;69.32;100228.22;5052742;28;20037;-76
2022/01/05 00:04:19;;;;;;;13.35;2.42;;;;;;;2.64;71.09;100221.31;5054104;28;20059;-76
2022/01/05 00:06:44;;;;;;;21.08;2.80;;;;;;;2.67;72.75;100235.16;5036029;28;20481;-76
2022/01/05 00:09:10;;;;;;;17.17;2.50;;;;;;;2.65;72.82;100243.97;5052343;28;20037;-76
2022/01/05 00:11:35;;;;;;;14.57;2.80;;;;;;;2.68;71.73;100231.59;5052298;28;20029;-77
2022/01/05 00:14:02;;;;;;;10.55;2.03;;;;;;;2.68;70.71;100240.31;5053911;28;20037;-77
2022/01/05 00:16:27;;;;;;;18.10;3.25;;;;;;;2.62;71.03;100212.66;5053368;28;20109;-77
2022/01/05 00:18:53;;;;;;;15.50;2.47;;;;;;;2.57;71.39;100230.53;5053714;28;20032;-77
2022/01/05 00:21:19;;;;;;;16.10;2.45;;;;;;;2.53;70.77;100226.41;5053594;28;20037;-76
2022/01/05 00:23:44;;;;;;;13.32;2.30;;;;;;;2.48;70.77;100233.78;5053519;28;20452;-77
2022/01/05 00:26:09;;;;;;;10.55;2.35;;;;;;;2.47;71.16;100222.41;5053531;28;20037;-78
2022/01/05 00:28:35;;;;;;;12.75;2.28;;;;;;;2.44;70.90;100233.13;5052851;28;20064;-76
2022/01/05 00:31:00;;;;;;;10.75;1.95;;;;;;;2.44;69.70;100227.03;5053455;28;20033;-76
2022/01/05 00:33:26;;;;;;;7.15;1.88;;;;;;;2.42;68.71;100232.38;5053349;28;20028;-81
2022/01/05 00:35:51;;;;;;;11.07;2.58;;;;;;;2.37;68.33;100231.00;5053623;28;20124;-75
2022/01/05 00:38:16;;;;;;;16.77;2.28;;;;;;;2.28;68.64;100225.44;5054012;28;20033;-76
2022/01/05 00:40:42;;;;;;;11.25;2.10;;;;;;;2.24;69.01;100241.47;5053464;28;20025;-77
2022/01/05 00:43:07;;;;;;;14.48;2.75;;;;;;;2.18;70.00;100239.22;5053249;28;20041;-75
2022/01/05 00:45:33;;;;;;;9.32;1.80;;;;;;;2.14;70.30;100233.34;5054195;28;20476;-76
2022/01/05 00:47:58;;;;;;;12.77;2.25;;;;;;;2.16;69.87;100228.84;5053268;28;20043;-76
2022/01/05 00:50:23;;;;;;;15.00;2.65;;;;;;;2.13;69.53;100236.91;5052713;28;20427;-75
2022/01/05 00:52:49;;;;;;;13.68;2.53;;;;;;;2.16;68.16;100234.09;5053731;28;20055;-76
2022/01/05 00:55:14;;;;;;;15.95;3.00;;;;;;;2.13;68.18;100225.59;5053452;28;20453;-76
2022/01/05 00:57:39;;;;;;;7.22;1.98;;;;;;;2.15;68.15;100237.66;5053259;28;20037;-77
2022/01/05 01:00:06;;;;;;;11.90;2.50;;;;;;;2.17;68.68;100232.31;5052036;28;20063;-77
2022/01/05 01:02:31;;;;;;;14.13;2.38;;;;;;;2.16;68.80;100238.50;5053016;28;20040;-79
2022/01/05 01:04:56;;;;;;;10.30;2.10;;;;;;;2.21;68.97;100233.78;5053774;28;20404;-76
2022/01/05 01:07:22;;;;;;;10.35;2.72;;;;;;;2.24;69.01;100233.56;5053296;28;20076;-77
2022/01/05 01:09:47;;;;;;;13.88;2.53;;;;;;;2.24;69.26;100237.06;5053125;28;20470;-77
2022/01/05 01:12:13;;;;;;;8.82;2.20;;;;;;;2.22;69.70;100236.31;5053363;28;20044;-78
2022/01/05 01:14:38;;;;;;;11.50;2.53;;;;;;;2.21;69.61;100231.16;5052915;28;20454;-76
2022/01/05 01:17:04;;;;;;;10.80;2.30;;;;;;;2.28;69.21;100245.56;5053739;28;20044;-76
2022/01/05 01:19:29;;;;;;;14.40;2.70;;;;;;;2.27;69.24;100230.78;5052890;28;20461;-77
2022/01/05 01:21:55;;;;;;;14.60;2.40;;;;;;;2.27;69.28;100244.75;5052614;28;20478;-77
2022/01/05 01:24:21;;;;;;;14.27;2.42;;;;;;;2.34;69.45;100249.59;5053310;28;20037;-78
2022/01/05 01:26:46;;;;;;;19.88;2.75;;;;;;;2.38;68.84;100249.28;5052642;28;20036;-77
2022/01/05 01:29:12;;;;;;;16.27;2.83;;;;;;;2.40;68.84;100250.00;5052923;28;20033;-76
2022/01/05 01:31:37;;;;;;;16.65;2.75;;;;;;;2.40;69.23;100250.00;5052339;28;20112;-77
2022/01/05 01:34:03;;;;;;;18.95;2.85;;;;;;;2.37;69.55;100244.13;5051662;28;20031;-76
2022/01/05 01:36:28;;;;;;;9.70;2.92;;;;;;;2.34;69.74;100239.91;5053194;28;20037;-76
2022/01/05 01:38:53;;;;;;;12.38;2.95;;;;;;;2.39;69.66;100255.38;5051960;28;20029;-78
2022/01/05 01:41:19;;;;;;;12.68;3.08;;;;;;;2.43;70.67;100262.97;5056517;28;20369;-76
2022/01/05 01:43:44;;;;;;;20.95;2.70;;;;;;;2.42;71.54;100271.78;5056478;28;20029;-76
2022/01/05 01:46:10;;;;;;;13.63;2.50;;;;;;;2.36;71.42;100261.69;5055330;28;20051;-76
2022/01/05 01:48:36;;;;;;;18.23;2.63;;;;;;;2.34;72.60;100258.28;5056046;28;20060;-80
2022/01/05 01:51:02;;;;;;;16.58;3.08;;;;;;;2.39;71.51;100261.47;5055183;28;20116;-77
2022/01/05 01:53:28;;;;;;;19.85;3.90;;;;;;;2.40;71.82;100259.69;5056290;28;20405;-76
2022/01/05 01:55:57;;;;;;;18.90;4.30;;;;;;;2.45;71.50;100268.13;5056180;28;20067;-76
2022/01/05 01:58:25;;;;;;;11.38;2.80;;;;;;;2.53;71.21;100259.72;5056114;28;20090;-77
2022/01/05 02:00:50;;;;;;;17.23;3.50;;;;;;;2.60;71.28;100263.63;5055958;28;20025;-77
2022/01/05 02:03:15;;;;;;;14.27;2.30;;;;;;;2.64;71.32;100259.84;5055975;28;20053;-77
2022/01/05 02:05:41;;;;;;;13.27;2.70;;;;;;;2.64;72.21;100258.06;5038908;28;20044;-77
2022/01/05 02:08:07;;;;;;;24.52;3.70;;;;;;;2.65;73.12;100261.53;5056162;28;20033;-76
2022/01/05 02:10:32;;;;;;;23.65;2.78;;;;;;;2.67;73.85;100261.44;5056582;28;20029;-76
2022/01/05 02:12:58;;;;;;;19.08;2.83;;;;;;;2.68;74.29;100266.56;5054698;28;20090;-77
2022/01/05 02:15:24;;;;;;;22.35;3.13;;;;;;;2.69;74.78;100270.03;5055791;28;20033;-77
2022/01/05 02:17:57;;;;;;;33.05;3.47;;;;;;;2.69;74.95;100259.53;5055873;28;20051;-77
2022/01/05 02:20:27;;;;;;;21.38;3.47;;;;;;;2.67;74.12;100262.25;5056016;28;20040;-77
2022/01/05 02:22:54;;;;;;;17.42;3.33;;;;;;;2.68;74.41;100261.31;5056094;28;20095;-78
2022/01/05 02:25:19;;;;;;;16.63;3.20;;;;;;;2.63;74.18;100255.56;5054541;28;20107;-78
2022/01/05 02:27:47;;;;;;;17.35;3.13;;;;;;;2.57;73.57;100263.84;5056171;28;20113;-78
2022/01/05 02:30:19;;;;;;;15.68;3.10;;;;;;;2.55;73.88;100261.28;5055758;28;20120;-77
2022/01/05 02:32:44;;;;;;;;;;;;;;;2.50;74.16;100267.81;5055965;28;20025;-78
2022/01/05 02:35:10;;;;;;;22.83;3.40;;;;;;;2.53;73.92;100265.81;5055833;28;19953;-77
2022/01/05 02:37:44;;;;;;;14.50;3.03;;;;;;;2.54;74.77;100270.13;5055497;28;20029;-77
2022/01/05 02:40:11;;;;;;;16.33;2.97;;;;;;;2.51;74.81;100259.84;5056284;28;20376;-76
2022/01/05 02:42:37;;;;;;;13.40;2.42;;;;;;;2.54;75.26;100277.16;5055486;28;20025;-76
2022/01/05 02:45:03;;;;;;;18.20;2.90;;;;;;;2.57;74.46;100274.34;5054458;28;20025;-77
2022/01/05 02:47:28;;;;;;;15.57;3.75;;;;;;;2.54;75.01;100270.13;5055601;28;20037;-76
2022/01/05 02:49:58;;;;;;;13.25;3.05;;;;;;;2.51;75.42;100266.84;5037638;28;20025;-76
2022/01/05 02:52:23;;;;;;;16.48;3.40;;;;;;;2.53;75.32;100273.69;5054110;28;20028;-78
2022/01/05 02:54:49;;;;;;;13.52;3.30;;;;;;;2.58;75.14;100268.13;5054740;28;20033;-77
2022/01/05 02:57:14;;;;;;;17.23;3.35;;;;;;;2.63;75.73;100279.19;5055166;28;20036;-78
2022/01/05 02:59:40;;;;;;;16.70;3.00;;;;;;;2.62;75.66;100269.63;5053828;28;20025;-77
2022/01/05 03:02:05;;;;;;;19.58;3.85;;;;;;;2.60;76.30;100282.03;5054910;28;20053;-78
2022/01/05 03:04:30;;;;;;;14.95;3.50;;;;;;;2.63;76.05;100287.06;5055432;28;20063;-77
2022/01/05 03:06:56;;;;;;;18.13;4.13;;;;;;;2.63;76.24;100287.91;5055114;28;20071;-76
2022/01/05 03:09:21;;;;;;;25.02;4.30;;;;;;;2.63;76.50;100285.28;5053362;28;20127;-76
2022/01/05 03:11:47;;;;;;;22.90;3.38;;;;;;;2.64;76.38;100299.25;5054337;28;20468;-82
2022/01/05 03:14:12;;;;;;;16.42;3.35;;;;;;;2.62;76.44;100288.84;5053322;28;20384;-76
2022/01/05 03:16:37;;;;;;;23.85;3.00;;;;;;;2.65;76.15;100307.03;5053344;28;20050;-77
2022/01/05 03:19:03;;;;;;;20.90;3.55;;;;;;;2.71;76.40;100307.56;5053326;28;20041;-76
2022/01/05 03:21:29;;;;;;;18.02;3.03;;;;;;;2.71;76.68;100304.94;5054038;28;20365;-76
2022/01/05 03:23:54;;;;;;;13.98;2.92;;;;;;;2.73;76.26;100306.53;5054735;28;20037;-77
2022/01/05 03:26:19;;;;;;;17.02;3.30;;;;;;;2.76;76.89;100313.34;5054023;28;20450;-76
2022/01/05 03:28:45;;;;;;;17.65;3.00;;;;;;;2.79;75.99;100302.63;5054569;28;20063;-76
2022/01/05 03:31:10;;;;;;;14.52;2.92;;;;;;;2.77;75.71;100301.91;5054573;28;20067;-77
2022/01/05 03:33:35;;;;;;;11.73;3.03;;;;;;;2.81;75.15;100306.03;5053969;28;20067;-77
2022/01/05 03:36:01;;;;;;;22.15;3.42;;;;;;;2.85;75.81;100317.16;5054130;28;20083;-77
2022/01/05 03:38:28;;;;;;;21.95;3.03;;;;;;;2.84;76.22;100308.44;5052699;28;20512;-77
2022/01/05 03:40:54;;;;;;;13.90;3.05;;;;;;;2.89;75.18;100314.22;5052983;28;20025;-78
2022/01/05 03:43:20;;;;;;;20.45;3.40;;;;;;;2.92;74.47;100321.91;5054265;28;20108;-76
2022/01/05 03:45:45;;;;;;;18.40;3.25;;;;;;;2.92;75.37;100318.44;5053776;28;20029;-76
2022/01/05 03:48:12;;;;;;;16.42;2.90;;;;;;;2.96;74.84;100322.56;5053974;28;20085;-77
2022/01/05 03:50:38;;;;;;;11.02;2.60;;;;;;;2.96;73.65;100328.66;5053928;28;20037;-77
2022/01/05 03:53:05;;;;;;;12.07;2.58;;;;;;;3.01;73.57;100317.81;5053860;28;20032;-77
2022/01/05 03:55:32;;;;;;;18.85;2.80;;;;;;;2.99;74.62;100320.56;5053896;28;20114;-77
2022/01/05 03:57:57;;;;;;;15.85;2.95;;;;;;;3.01;74.67;100325.69;5054011;28;20177;-77
2022/01/05 04:00:27;;;;;;;19.25;2.95;;;;;;;3.02;74.92;100313.44;5053922;28;20029;-76
2022/01/05 04:02:53;;;;;;;17.55;4.57;;;;;;;3.02;75.25;100335.28;5053209;28;20570;-78
2022/01/05 04:05:18;;;;;;;23.02;3.10;;;;;;;3.05;74.91;100337.69;5052922;28;20033;-77
2022/01/05 04:07:44;;;;;;;19.02;2.65;;;;;;;3.08;74.52;100326.97;5053086;28;20374;-77
2022/01/05 04:10:09;;;;;;;17.80;3.47;;;;;;;3.08;74.09;100329.59;5053337;28;20032;-75
2022/01/05 04:12:34;;;;;;;13.88;2.75;;;;;;;3.09;73.18;100333.94;5053664;28;20025;-76
2022/01/05 04:15:00;;;;;;;14.43;3.20;;;;;;;3.09;73.39;100333.94;5053679;28;20029;-76
2022/01/05 04:17:25;;;;;;;12.65;2.72;;;;;;;3.11;73.00;100339.09;5053821;28;20078;-78
2022/01/05 04:19:51;;;;;;;22.77;3.45;;;;;;;3.10;73.53;100325.06;5052326;28;20149;-76
2022/01/05 04:22:16;;;;;;;17.20;3.03;;;;;;;3.09;74.45;100339.19;5052345;28;20383;-76
2022/01/05 04:24:42;;;;;;;22.20;3.13;;;;;;;3.00;74.99;100334.53;5052590;28;20033;-76
2022/01/05 04:27:07;;;;;;;20.23;3.05;;;;;;;2.99;75.50;100330.22;5052838;28;20041;-76
2022/01/05 04:29:32;;;;;;;27.40;3.30;;;;;;;2.99;76.07;100328.44;5053480;28;20029;-76
2022/01/05 04:31:58;;;;;;;18.58;3.15;;;;;;;3.02;76.20;100339.72;5053196;28;20029;-77
2022/01/05 04:34:23;;;;;;;18.48;3.38;;;;;;;3.05;76.47;100334.25;5053636;28;20504;-76
2022/01/05 04:36:48;;;;;;;18.08;3.33;;;;;;;3.06;76.09;100328.03;5053017;28;20112;-77
2022/01/05 04:39:14;;;;;;;21.90;2.95;;;;;;;3.02;76.56;100345.78;5053318;28;20390;-78
2022/01/05 04:41:40;;;;;;;14.63;2.78;;;;;;;2.99;76.19;100333.69;5052366;28;20167;-77
2022/01/05 04:44:06;;;;;;;12.98;2.47;;;;;;;2.96;76.34;100330.44;5053927;28;20074;-77
2022/01/05 04:46:31;;;;;;;20.50;3.40;;;;;;;2.98;76.42;100331.16;5052134;28;20110;-77
2022/01/05 04:48:57;;;;;;;17.05;2.95;;;;;;;2.96;76.76;100343.59;5053189;28;20606;-77
2022/01/05 04:51:22;;;;;;;24.65;3.75;;;;;;;2.99;76.46;100341.56;5052990;28;20135;-77
2022/01/05 04:53:47;;;;;;;19.55;2.72;;;;;;;2.99;76.26;100346.00;5052285;28;20393;-77
2022/01/05 04:56:13;;;;;;;15.52;2.95;;;;;;;2.94;75.90;100340.19;5053163;28;20405;-76
2022/01/05 04:58:38;;;;;;;15.90;3.00;;;;;;;2.91;76.10;100343.03;5052919;28;20025;-77
2022/01/05 05:01:03;;;;;;;19.40;3.13;;;;;;;2.89;76.27;100352.81;5053551;28;20057;-81
2022/01/05 05:03:29;;;;;;;12.27;3.00;;;;;;;2.87;76.54;100352.09;5054009;28;20072;-77
2022/01/05 05:05:54;;;;;;;15.98;3.05;;;;;;;2.85;76.90;100333.75;5053656;28;20064;-77
2022/01/05 05:08:20;;;;;;;15.07;3.08;;;;;;;2.89;75.89;100348.38;5053135;28;20033;-77
2022/01/05 05:10:45;;;;;;;13.95;3.60;;;;;;;2.93;75.63;100344.63;5051712;28;20515;-77
2022/01/05 05:13:13;;;;;;;13.02;2.72;;;;;;;2.98;75.46;100357.44;5052803;28;20040;-78
2022/01/05 05:15:40;;;;;;;14.65;3.40;;;;;;;3.00;75.73;100369.56;5037720;28;20032;-77
2022/01/05 05:18:05;;;;;;;17.85;3.22;;;;;;;3.02;76.24;100366.00;5039144;28;20378;-80
2022/01/05 05:20:32;;;;;;;19.20;3.17;;;;;;;2.98;76.11;100367.97;5056989;28;20045;-77
2022/01/05 05:22:58;;;;;;;18.95;2.85;;;;;;;3.01;76.26;100375.66;5057545;28;20425;-78
2022/01/05 05:25:24;;;;;;;18.83;3.03;;;;;;;3.04;76.99;100361.47;5057191;28;20037;-77
2022/01/05 05:27:49;;;;;;;23.83;3.22;;;;;;;3.05;76.67;100350.00;5056934;28;20082;-77
2022/01/05 05:30:14;;;;;;;13.82;2.72;;;;;;;3.06;76.75;100354.31;5057046;28;20051;-78
2022/01/05 05:32:40;;;;;;;10.98;2.60;;;;;;;2.99;76.95;100359.16;5057319;28;20036;-77
2022/01/05 05:35:06;;;;;;;19.33;3.08;;;;;;;2.94;77.05;100369.09;5055573;28;20495;-76
2022/01/05 05:37:31;;;;;;;16.15;3.00;;;;;;;2.93;76.69;100349.88;5057154;28;20033;-77
2022/01/05 05:39:57;;;;;;;24.27;2.90;;;;;;;2.92;77.49;100373.63;5056734;28;20039;-77
2022/01/05 05:42:22;;;;;;;20.10;4.05;;;;;;;2.91;77.57;100364.06;5057042;28;20040;-77
2022/01/05 05:44:48;;;;;;;14.15;2.53;;;;;;;2.91;77.64;100357.03;5057110;28;20453;-77
2022/01/05 05:47:13;;;;;;;28.42;4.07;;;;;;;2.94;78.09;100362.09;5056565;28;20033;-78
2022/01/05 05:49:39;;;;;;;21.85;2.80;;;;;;;2.97;78.56;100371.53;5056511;28;20126;-77
2022/01/05 05:52:04;;;;;;;20.55;3.05;;;;;;;3.04;78.58;100359.66;5056862;28;20036;-75
2022/01/05 05:54:30;;;;;;;23.17;3.03;;;;;;;3.08;78.48;100373.47;5057123;28;20040;-77
2022/01/05 05:56:56;;;;;;;22.42;4.15;;;;;;;3.14;78.63;100367.78;5056407;28;20428;-77
2022/01/05 05:59:21;;;;;;;21.73;4.10;;;;;;;3.21;78.29;100374.34;5056077;28;20065;-77
2022/01/05 06:01:46;;;;;;;20.75;3.45;;;;;;;3.33;78.34;100381.38;5056326;28;20393;-77
2022/01/05 06:04:12;;;;;;;23.55;3.97;;;;;;;3.36;78.44;100372.44;5056416;28;20079;-78
2022/01/05 06:06:37;;;;;;;15.68;2.75;;;;;;;3.42;78.96;100372.03;5054902;28;20033;-78
2022/01/05 06:09:03;;;;;;;22.33;4.30;;;;;;;3.48;79.60;100381.31;5056554;28;20082;-78
2022/01/05 06:11:28;;;;;;;20.38;3.58;;;;;;;3.51;79.73;100379.28;5038303;28;20035;-77
2022/01/05 06:13:54;;;;;;;25.85;3.22;;;;;;;3.51;79.19;100381.94;5056316;28;20095;-77
2022/01/05 06:16:20;;;;;;;18.80;4.40;;;;;;;3.53;79.18;100389.72;5054625;28;20044;-77
2022/01/05 06:18:45;;;;;;;19.45;3.22;;;;;;;3.57;78.68;100390.31;5056272;28;20025;-77
2022/01/05 06:21:10;;;;;;;20.63;3.40;;;;;;;3.57;78.09;100385.06;5054583;28;20469;-77
2022/01/05 06:23:36;;;;;;;28.33;4.10;;;;;;;3.55;78.18;100398.31;5055049;28;20032;-77
2022/01/05 06:26:01;;;;;;;27.67;3.70;;;;;;;3.56;78.42;100405.28;5054149;28;20029;-76
2022/01/05 06:28:27;;;;;;;27.23;3.92;;;;;;;3.56;78.98;100404.44;5055413;28;20029;-77
2022/01/05 06:30:52;;;;;;;27.30;4.45;;;;;;;3.56;79.37;100409.72;5055450;28;20029;-77
2022/01/05 06:33:18;;;;;;;29.38;4.45;;;;;;;3.55;79.21;100416.75;5055556;28;20091;-77
2022/01/05 06:35:43;;;;;;;30.23;3.90;;;;;;;3.54;79.87;100409.81;5056163;28;20085;-77
2022/01/05 06:38:09;;;;;;;27.60;4.25;;;;;;;3.53;79.99;100408.13;5054187;28;20071;-77
2022/01/05 06:40:35;;;;;;;19.73;3.17;;;;;;;3.54;79.95;100412.44;5055736;28;20029;-77
2022/01/05 06:43:01;;;;;;;25.00;3.58;;;;;;;3.57;79.96;100419.28;5055399;28;20033;-76
2022/01/05 06:45:27;;;;;;;21.38;3.75;;;;;;;3.57;79.77;100417.50;5053913;28;20106;-77
2022/01/05 06:47:53;;;;;;;20.08;3.55;;;;;;;3.55;79.93;100424.63;5055643;28;20076;-76
2022/01/05 06:50:18;;;;;;;20.30;2.78;;;;;;;3.57;79.26;100408.75;5055236;28;20210;-80
2022/01/05 06:52:44;;;;;;;25.40;3.65;;;;;;;3.56;79.25;100421.06;5055238;28;20033;-75
2022/01/05 06:55:09;;;;;;;25.45;3.72;;;;;;;3.56;79.71;100418.44;5054063;28;20571;-76
2022/01/05 06:57:40;;;;;;;21.92;3.78;;;;;;;3.57;80.16;100432.41;5055230;28;20068;-78
2022/01/05 07:00:08;;;;;;;24.70;3.85;;;;;;;3.57;80.38;100414.88;5055478;28;20083;-78
2022/01/05 07:02:33;;;;;;;25.00;4.82;;;;;;;3.59;80.54;100430.53;5054950;28;20111;-78
2022/01/05 07:04:59;;;;;;;22.38;3.83;;;;;;;3.62;80.86;100431.16;5054607;28;20080;-78
2022/01/05 07:07:24;;;;;;;27.75;3.70;;;;;;;3.63;80.88;100437.28;5055433;28;20052;-77
2022/01/05 07:09:49;;;;;;;27.17;3.63;;;;;;;3.64;81.44;100437.19;5054864;28;20033;-79
2022/01/05 07:12:15;;;;;;;25.13;3.58;;;;;;;3.65;81.22;100435.38;5054139;28;20091;-78
2022/01/05 07:14:40;;;;;;;32.50;4.47;;;;;;;3.69;80.95;100442.13;5055169;28;20032;-79
2022/01/05 07:17:06;;;;;;;25.42;4.60;;;;;;;3.70;80.97;100446.44;5054756;28;20060;-78
2022/01/05 07:19:31;;;;;;;27.00;3.97;;;;;;;3.70;81.12;100447.28;5054233;28;20083;-78
2022/01/05 07:21:56;;;;;;;26.70;3.55;;;;;;;3.75;81.37;100454.00;5053681;28;20036;-81
2022/01/05 07:24:22;;;;;;;21.17;4.20;;;;;;;3.76;81.49;100445.19;5055093;28;20033;-80
2022/01/05 07:26:48;;;;;;;23.65;4.35;;;;;;;3.77;81.41;100458.22;5055097;28;20491;-79
2022/01/05 07:29:15;;;;;;;25.20;3.70;;;;;;;3.83;80.66;100454.34;5053664;28;20043;-78
2022/01/05 07:31:41;;;;;;;26.50;4.00;;;;;;;3.85;80.93;100460.34;5054987;28;20036;-78
2022/01/05 07:34:07;;;;;;;23.35;3.22;;;;;;;3.85;80.98;100461.19;5053612;28;20037;-78
2022/01/05 07:36:33;;;;;;;32.25;5.60;;;;;;;3.91;80.41;100465.16;5054228;28;20029;-79
2022/01/05 07:38:59;;;;;;;28.80;4.60;;;;;;;3.94;80.44;100472.03;5053366;28;20515;-79
2022/01/05 07:41:25;;;;;;;22.85;3.90;;;;;;;3.98;80.60;100471.72;5054622;28;20064;-81
2022/01/05 07:43:51;;;;;;;23.60;4.13;;;;;;;3.99;80.54;100472.56;5054527;28;20033;-78
2022/01/05 07:46:17;;;;;;;22.73;3.40;;;;;;;3.98;80.91;100476.97;5036262;28;20507;-77
2022/01/05 07:48:42;;;;;;;25.30;4.45;;;;;;;3.92;81.64;100477.41;5053824;28;20041;-77
2022/01/05 07:51:07;;;;;;;21.58;3.20;;;;;;;3.82;83.11;100471.06;5054267;28;20064;-79
2022/01/05 07:53:33;;;;;;;23.25;3.75;;;;;;;3.73;83.78;100469.91;5054289;28;20032;-77
2022/01/05 07:55:58;;;;;;;27.25;3.70;;;;;;;3.70;84.01;100481.50;5053892;28;20064;-78
2022/01/05 07:58:23;;;;;;;23.90;3.15;;;;;;;3.73;83.97;100485.69;5054181;28;20024;-78
2022/01/05 08:00:49;;;;;;;24.33;3.58;;;;;;;3.71;84.79;100504.22;5052838;28;20381;-76
2022/01/05 08:03:15;;;;;;;19.85;3.35;;;;;;;3.63;86.18;100489.91;5053000;28;20033;-76
2022/01/05 08:05:40;;;;;;;31.52;4.28;;;;;;;3.55;87.44;100495.66;5036773;28;20452;-77
2022/01/05 08:08:05;;;;;;;26.02;4.40;;;;;;;3.46;88.68;100499.78;5052722;28;20057;-77
2022/01/05 08:10:31;;;;;;;20.85;4.18;;;;;;;3.39;89.19;100503.75;5053870;28;20079;-76
2022/01/05 08:12:56;;;;;;;28.33;3.47;;;;;;;3.30;90.77;100507.81;5053863;28;20125;-75
2022/01/05 08:15:21;;;;;;;19.65;3.85;;;;;;;3.26;90.23;100489.72;5052644;28;20140;-75
2022/01/05 08:17:47;;;;;;;22.92;3.63;;;;;;;3.21;90.66;100528.59;5053555;28;20108;-75
2022/01/05 08:20:12;;;;;;;30.10;3.80;;;;;;;3.15;91.04;100512.28;5052539;28;20168;-74
2022/01/05 08:22:40;;;;;;;25.85;3.50;;;;;;;3.09;92.02;100528.47;5053878;28;20045;-75
2022/01/05 08:25:07;;;;;;;29.67;4.93;;;;;;;3.04;92.34;100509.50;5052909;28;20351;-73
2022/01/05 08:27:32;;;;;;;17.10;3.00;;;;;;;3.04;92.69;100521.81;5053190;28;20466;-75
2022/01/05 08:30:03;;;;;;;26.77;3.50;;;;;;;3.02;93.85;100535.06;5036463;28;20083;-74
2022/01/05 08:32:29;;;;;;;30.20;3.67;;;;;;;3.03;94.07;100531.50;5053136;28;20357;-74
2022/01/05 08:34:54;;;;;;;23.77;3.53;;;;;;;3.07;94.66;100521.59;5053686;28;20036;-74
2022/01/05 08:37:20;;;;;;;20.33;3.63;;;;;;;3.12;94.06;100530.03;5035648;28;20025;-73
2022/01/05 08:39:49;;;;;;;28.08;4.65;;;;;;;3.14;93.96;100521.13;5053232;28;20600;-72
2022/01/05 08:42:15;;;;;;;26.25;3.92;;;;;;;3.20;93.09;100535.66;5052236;28;20510;-73
2022/01/05 08:44:40;;;;;;;39.58;4.82;;;;;;;3.22;93.14;100559.22;5053058;28;20118;-73
2022/01/05 08:47:07;;;;;;;22.25;4.82;;;;;;;3.28;92.60;100538.63;5053550;28;20408;-73
2022/01/05 08:49:33;;;;;;;32.45;4.72;;;;;;;3.36;93.04;100540.78;5052455;28;20037;-78
2022/01/05 08:51:59;;;;;;;28.50;4.43;;;;;;;3.59;90.88;100559.47;5052957;28;20079;-74
2022/01/05 08:54:25;;;;;;;30.05;3.70;;;;;;;3.64;90.82;100554.72;5051646;28;20061;-73
2022/01/05 08:56:50;;;;;;;23.92;3.65;;;;;;;3.69;90.42;100557.91;5053580;28;20032;-72
2022/01/05 08:59:16;;;;;;;34.60;4.55;;;;;;;3.70;90.45;100554.31;5051855;28;20492;-71
2022/01/05 09:01:43;;;;;;;23.67;3.95;;;;;;;3.73;89.90;100558.53;5052634;28;20048;-73
2022/01/05 09:04:11;;;;;;;36.03;4.82;;;;;;;3.67;90.70;100563.28;5053113;28;20080;-75
2022/01/05 09:06:36;;;;;;;37.03;5.68;;;;;;;3.62;91.49;100572.41;5051697;28;20041;-83
2022/01/05 09:09:03;;;;;;;30.20;4.65;;;;;;;3.64;90.62;100571.38;5053338;28;20116;-76
2022/01/05 09:11:33;;;;;;;29.80;3.53;;;;;;;3.64;90.10;100570.50;5052897;28;20076;-75
2022/01/05 09:13:58;;;;;;;31.00;4.20;;;;;;;3.61;90.68;100584.72;5035623;28;20049;-74
2022/01/05 09:16:24;;;;;;;28.50;4.72;;;;;;;3.64;90.36;100576.66;5051941;28;20523;-74
2022/01/05 09:18:49;;;;;;;26.98;3.72;;;;;;;3.67;90.76;100579.06;5051458;28;20037;-75
2022/01/05 09:21:15;;;;;;;32.53;4.20;;;;;;;3.77;89.81;100592.44;5053547;28;20112;-76
2022/01/05 09:23:40;;;;;;;33.53;4.55;;;;;;;3.84;89.57;100592.91;5051873;28;20097;-76
2022/01/05 09:26:06;;;;;;;26.30;3.88;;;;;;;3.95;89.02;100598.28;5052660;28;20130;-74
2022/01/05 09:28:31;;;;;;;34.05;5.05;;;;;;;4.06;88.65;100613.34;5051789;28;20033;-74
2022/01/05 09:30:57;;;;;;;29.40;4.15;;;;;;;4.12;88.55;100606.84;5052702;28;20033;-76
2022/01/05 09:33:25;;;;;;;26.23;4.15;;;;;;;4.21;87.30;100604.44;5053274;28;20036;-74
2022/01/05 09:36:00;;;;;;;22.10;4.10;;;;;;;4.29;86.09;100622.34;5052862;28;20037;-73
2022/01/05 09:43:53;;;;;;;21.15;3.00;;;;;;;4.41;84.96;100615.41;5053059;28;20132;-76
2022/01/05 09:46:44;;;;;;;31.75;5.28;;;;;;;4.45;84.48;100630.06;5052687;28;20493;-75
2022/01/05 09:49:11;;;;;;;;;;;;;;;4.46;85.20;100626.47;5053774;28;20044;-77
2022/01/05 09:51:41;;;;;;;23.63;3.65;;;;;;;4.43;86.27;100637.22;5052660;28;19912;-83
2022/01/05 09:54:09;;;;;;;32.83;4.05;;;;;;;4.43;84.75;100626.69;5052673;28;20095;-79
2022/01/05 09:56:36;;;;;;;30.23;3.85;;;;;;;4.43;85.20;100641.66;5051879;28;20037;-76
2022/01/05 09:59:02;;;;;;;29.58;4.60;;;;;;;4.49;84.91;100647.34;5053142;28;20041;-77
2022/01/05 10:01:33;;;;;;;35.05;4.25;;;;;;;4.57;84.20;100660.00;5054508;28;20426;-76
2022/01/05 10:04:01;;;;;;;37.90;5.30;;;;;;;4.64;83.68;100650.72;5056280;28;20045;-77
2022/01/05 10:06:27;;;;;;;26.55;3.78;;;;;;;4.67;83.64;100649.66;5056264;28;20045;-76
2022/01/05 10:08:53;;;;;;;36.25;4.38;;;;;;;4.66;84.02;100658.50;5056105;28;20032;-76
2022/01/05 10:11:22;;;;;;;25.27;3.80;;;;;;;4.66;82.85;100656.75;5054951;28;20048;-75
2022/01/05 10:13:48;;;;;;;25.42;4.55;;;;;;;4.71;82.49;100656.41;5055584;28;20413;-75
2022/01/05 10:16:14;;;;;;;21.70;4.00;;;;;;;4.69;81.99;100664.44;5055759;28;20090;-74
2022/01/05 10:18:44;;;;;;;18.27;3.00;;;;;;;4.64;82.68;100665.69;5055377;28;20086;-74
2022/01/05 10:21:12;;;;;;;26.63;3.65;;;;;;;4.52;83.43;100673.50;5056111;28;20405;-74
2022/01/05 10:23:52;;;;;;;25.20;3.08;;;;;;;4.38;85.87;100700.75;5055818;28;20067;-74
2022/01/05 10:26:20;;;;;;;24.98;4.00;;;;;;;4.29;86.96;100692.63;5055838;28;20079;-74
2022/01/05 10:28:47;;;;;;;27.42;3.72;;;;;;;4.19;88.17;100693.22;5056137;28;20029;-75
2022/01/05 10:31:17;;;;;;;30.17;4.13;;;;;;;4.14;88.17;100692.69;5055621;28;20025;-78
2022/01/05 10:33:43;;;;;;;19.30;3.05;;;;;;;4.03;89.64;100698.69;5054394;28;20071;-76
2022/01/05 10:36:09;;;;;;;28.67;3.80;;;;;;;3.95;91.36;100697.47;5055489;28;20032;-74
2022/01/05 10:38:34;;;;;;;23.50;3.90;;;;;;;3.95;91.27;100706.22;5056352;28;20079;-73
2022/01/05 10:41:14;;;;;;;34.17;4.90;;;;;;;4.02;91.10;100704.03;5055140;28;20044;-73
2022/01/05 10:44:08;;;;;;;31.45;4.20;;;;;;;3.99;92.25;100712.97;5055561;28;20074;-73
2022/01/05 10:46:36;;;;;;;27.88;3.30;;;;;;;4.06;91.92;100719.53;5055365;28;20048;-73
2022/01/05 10:49:04;;;;;;;46.60;4.35;;;;;;;4.11;91.87;100719.25;5055241;28;20057;-74
2022/01/05 10:51:30;;;;;;;36.35;5.15;;;;;;;4.14;91.05;100736.63;5055271;28;20036;-73
2022/01/05 10:54:22;;;;;;;35.85;4.18;;;;;;;4.13;91.61;100725.25;5054807;28;20362;-74
2022/01/05 10:56:48;;;;;;;;;;;;;;;4.13;91.63;100724.41;5055613;28;20238;-78
2022/01/05 10:59:14;;;;;;;26.05;4.18;;;;;;;4.17;91.01;100725.91;5055472;28;19964;-72
2022/01/05 11:01:41;;;;;;;27.70;4.15;;;;;;;4.18;90.99;100727.56;5055076;28;20054;-74
2022/01/05 11:04:23;;;;;;;30.55;4.70;;;;;;;4.23;90.49;100726.31;5053912;28;20108;-73
2022/01/05 11:06:55;;;;;;;30.02;4.15;;;;;;;4.28;90.88;100741.81;5054314;28;20056;-77
2022/01/05 11:09:22;;;;;;;29.02;4.00;;;;;;;4.39;90.19;100754.31;5055156;28;20029;-73
2022/01/05 11:11:49;;;;;;;26.77;4.43;;;;;;;4.43;89.38;100736.50;5054750;28;20035;-78
2022/01/05 11:14:30;;;;;;;22.88;4.35;;;;;;;4.48;88.50;100727.34;5054907;28;20065;-75
2022/01/05 11:16:57;;;;;;;29.23;3.95;;;;;;;4.53;88.34;100716.50;5054253;28;20407;-74
2022/01/05 11:19:27;;;;;;;23.90;4.35;;;;;;;4.62;88.30;100725.59;5054947;28;20029;-74
2022/01/05 11:22:12;;;;;;;29.48;3.45;;;;;;;4.72;86.55;100737.19;5054653;28;20385;-75
2022/01/05 11:24:46;;;;;;;27.15;3.47;;;;;;;4.80;86.31;100739.31;5054798;28;20513;-77
2022/01/05 11:27:14;;;;;;;35.13;4.10;;;;;;;4.79;87.39;100763.97;5054878;28;20354;-75
2022/01/05 11:29:40;;;;;;;26.30;4.32;;;;;;;4.71;88.07;100748.69;5054736;28;20503;-73